createdAt,value
2022-10-09T00:00:32.779Z,10.13
2022-10-09T00:03:07.055Z,10.33
2022-10-09T00:05:40.795Z,10.05
2022-10-09T00:08:13.267Z,10.23
2022-10-09T00:10:46.239Z,10.21
2022-10-09T00:13:19.045Z,10.19
2022-10-09T00:15:51.712Z,10.24
2022-10-09T00:18:25.596Z,10.16
2022-10-09T00:20:58.175Z,10.14
2022-10-09T00:23:30.945Z,10.09
2022-10-09T00:26:03.553Z,10.09
2022-10-09T00:28:38.645Z,10.06
2022-10-09T00:31:12.804Z,10.06
2022-10-09T00:33:46.924Z,9.99
2022-10-09T00:36:20.848Z,9.95
2022-10-09T00:38:54.712Z,9.68
2022-10-09T00:41:29.429Z,9.94
2022-10-09T00:44:03.926Z,9.88
2022-10-09T00:46:42.438Z,9.61
2022-10-09T00:49:25.737Z,9.88
2022-10-09T00:52:02.242Z,9.59
2022-10-09T00:54:39.925Z,9.80
2022-10-09T00:57:12.635Z,9.60
2022-10-09T00:59:45.476Z,9.74
2022-10-09T01:02:18.416Z,9.78
2022-10-09T01:04:52.306Z,9.73
2022-10-09T01:07:34.006Z,9.71
2022-10-09T01:10:18.018Z,9.69
2022-10-09T01:13:01.509Z,9.65
2022-10-09T01:15:39.356Z,9.67
2022-10-09T01:18:18.258Z,9.58
2022-10-09T01:20:55.219Z,9.66
2022-10-09T01:24:03.212Z,9.68
2022-10-09T01:26:58.900Z,9.67
2022-10-09T01:29:36.613Z,9.57
2022-10-09T01:32:10.765Z,9.65
2022-10-09T01:34:46.231Z,9.58
2022-10-09T01:37:21.453Z,9.34
2022-10-09T01:39:54.539Z,9.57
2022-10-09T01:42:29.012Z,9.59
2022-10-09T01:45:02.955Z,9.47
2022-10-09T01:47:38.074Z,9.60
2022-10-09T01:50:22.086Z,9.61
2022-10-09T01:52:59.257Z,9.33
2022-10-09T01:55:39.291Z,9.49
2022-10-09T01:58:19.039Z,9.60
2022-10-09T02:01:00.360Z,9.54
2022-10-09T02:03:35.528Z,9.58
2022-10-09T02:06:11.361Z,9.51
2022-10-09T02:08:46.136Z,9.30
2022-10-09T02:11:18.917Z,9.42
2022-10-09T02:13:53.186Z,9.41
2022-10-09T02:16:37.407Z,9.47
2022-10-09T02:19:14.739Z,9.40
2022-10-09T02:21:54.431Z,9.36
2022-10-09T02:24:28.382Z,9.39
2022-10-09T02:27:02.797Z,9.31
2022-10-09T02:29:35.622Z,9.35
2022-10-09T02:32:10.253Z,9.22
2022-10-09T02:34:43.041Z,9.32
2022-10-09T02:37:16.022Z,9.25
2022-10-09T02:39:49.072Z,9.31
2022-10-09T02:42:22.330Z,9.26
2022-10-09T02:44:54.729Z,9.32
2022-10-09T02:47:28.691Z,9.30
2022-10-09T02:50:01.055Z,9.24
2022-10-09T02:52:35.676Z,9.20
2022-10-09T02:55:08.718Z,9.18
2022-10-09T02:57:41.283Z,8.97
2022-10-09T03:00:14.858Z,9.20
2022-10-09T03:02:49.088Z,9.22
2022-10-09T03:05:21.730Z,9.23
2022-10-09T03:07:54.263Z,9.17
2022-10-09T03:10:26.921Z,9.19
2022-10-09T03:12:59.496Z,9.08
2022-10-09T03:15:34.022Z,9.03
2022-10-09T03:18:07.971Z,8.98
2022-10-09T03:20:40.448Z,9.10
2022-10-09T03:23:13.207Z,9.23
2022-10-09T03:25:45.653Z,9.16
2022-10-09T03:28:18.381Z,9.22
2022-10-09T03:30:50.963Z,9.16
2022-10-09T03:33:24.866Z,9.12
2022-10-09T03:35:57.263Z,9.17
2022-10-09T03:38:30.026Z,9.09
2022-10-09T03:41:04.306Z,9.14
2022-10-09T03:43:37.159Z,9.13
2022-10-09T03:46:10.067Z,9.14
2022-10-09T03:48:44.006Z,9.15
2022-10-09T03:51:16.413Z,9.10
2022-10-09T03:53:49.003Z,9.08
2022-10-09T03:56:21.430Z,9.09
2022-10-09T03:58:54.137Z,9.04
2022-10-09T04:01:26.746Z,8.89
2022-10-09T04:04:03.563Z,9.19
2022-10-09T04:06:36.075Z,9.18
2022-10-09T04:09:08.967Z,9.21
2022-10-09T04:11:41.482Z,9.22
2022-10-09T04:14:13.977Z,9.23
2022-10-09T04:16:46.594Z,9.10
2022-10-09T04:19:20.649Z,9.29
2022-10-09T04:21:53.081Z,9.33
2022-10-09T04:24:25.701Z,9.37
2022-10-09T04:26:58.130Z,9.39
2022-10-09T04:29:30.715Z,9.38
2022-10-09T04:32:03.143Z,9.45
2022-10-09T04:34:37.037Z,9.29
2022-10-09T04:37:09.551Z,9.50
2022-10-09T04:39:42.162Z,9.39
2022-10-09T04:42:14.654Z,9.58
2022-10-09T04:44:47.172Z,9.58
2022-10-09T04:47:19.589Z,9.65
2022-10-09T04:49:53.462Z,9.68
2022-10-09T04:52:26.060Z,9.59
2022-10-09T04:54:58.582Z,9.58
2022-10-09T04:57:31.025Z,9.77
2022-10-09T05:00:04.545Z,9.75
2022-10-09T05:02:37.066Z,9.87
2022-10-09T05:05:11.386Z,9.86
2022-10-09T05:07:43.859Z,9.96
2022-10-09T05:10:16.610Z,9.71
2022-10-09T05:12:49.291Z,9.99
2022-10-09T05:15:22.076Z,10.11
2022-10-09T05:17:54.698Z,10.13
2022-10-09T05:20:28.806Z,10.10
2022-10-09T05:23:01.574Z,10.24
2022-10-09T05:25:34.186Z,10.33
2022-10-09T05:28:06.785Z,10.37
2022-10-09T05:30:41.966Z,10.31
2022-10-09T05:33:14.425Z,10.52
2022-10-09T05:35:56.460Z,10.57
2022-10-09T05:38:29.430Z,10.66
2022-10-09T05:41:05.246Z,10.71
2022-10-09T05:43:39.694Z,10.77
2022-10-09T05:46:14.286Z,10.82
2022-10-09T05:48:51.522Z,10.83
2022-10-09T05:51:27.012Z,10.90
2022-10-09T05:54:02.030Z,10.95
2022-10-09T05:56:36.794Z,10.93
2022-10-09T05:59:11.398Z,10.99
2022-10-09T06:01:47.159Z,11.09
2022-10-09T06:04:21.612Z,11.11
2022-10-09T06:06:56.203Z,11.25
2022-10-09T06:09:28.770Z,11.33
2022-10-09T06:12:02.771Z,11.37
2022-10-09T06:14:35.287Z,11.45
2022-10-09T06:17:07.896Z,11.49
2022-10-09T06:19:40.269Z,11.53
2022-10-09T06:22:14.415Z,11.56
2022-10-09T06:24:46.810Z,11.67
2022-10-09T06:27:19.358Z,11.76
2022-10-09T06:29:53.478Z,11.73
2022-10-09T06:32:26.182Z,11.78
2022-10-09T06:34:58.665Z,11.88
2022-10-09T06:37:32.645Z,11.92
2022-10-09T06:40:05.893Z,11.95
2022-10-09T06:42:38.620Z,11.96
2022-10-09T06:45:22.085Z,12.01
2022-10-09T06:47:55.506Z,12.05
2022-10-09T06:50:27.882Z,12.04
2022-10-09T06:53:01.892Z,12.09
2022-10-09T06:55:34.306Z,12.06
2022-10-09T06:58:06.877Z,12.12
2022-10-09T07:00:39.335Z,12.17
2022-10-09T07:03:11.997Z,12.13
2022-10-09T07:05:44.759Z,12.10
2022-10-09T07:08:18.966Z,12.08
2022-10-09T07:10:51.375Z,12.21
2022-10-09T07:13:24.089Z,12.25
2022-10-09T07:15:57.473Z,12.11
2022-10-09T07:18:32.690Z,12.16
2022-10-09T07:21:07.137Z,12.35
2022-10-09T07:23:41.198Z,12.38
2022-10-09T07:26:15.995Z,12.28
2022-10-09T07:28:49.436Z,12.41
2022-10-09T07:31:23.280Z,12.44
2022-10-09T07:33:57.106Z,12.52
2022-10-09T07:36:29.710Z,12.49
2022-10-09T07:39:05.042Z,12.53
2022-10-09T07:41:37.574Z,12.53
2022-10-09T07:44:10.562Z,12.60
2022-10-09T07:46:43.149Z,12.45
2022-10-09T07:49:16.081Z,12.66
2022-10-09T07:51:48.598Z,12.51
2022-10-09T07:54:22.685Z,12.75
2022-10-09T07:56:55.245Z,12.76
2022-10-09T07:59:30.285Z,12.78
2022-10-09T08:02:03.087Z,12.82
2022-10-09T08:04:37.517Z,12.72
2022-10-09T08:07:09.987Z,12.85
2022-10-09T08:09:44.102Z,12.44
2022-10-09T08:12:16.494Z,12.84
2022-10-09T08:14:49.357Z,12.60
2022-10-09T08:17:21.842Z,12.89
2022-10-09T08:19:54.664Z,12.93
2022-10-09T08:22:27.101Z,13.02
2022-10-09T08:25:01.473Z,12.96
2022-10-09T08:27:35.854Z,13.08
2022-10-09T08:30:09.346Z,13.07
2022-10-09T08:32:41.797Z,13.13
2022-10-09T08:35:14.470Z,13.16
2022-10-09T08:37:46.985Z,13.20
2022-10-09T08:40:30.030Z,13.21
2022-10-09T08:43:06.734Z,13.24
2022-10-09T08:45:40.958Z,13.26
2022-10-09T08:48:20.303Z,13.30
2022-10-09T08:50:57.384Z,13.33
2022-10-09T08:53:38.300Z,13.33
2022-10-09T08:56:15.628Z,13.31
2022-10-09T08:58:48.223Z,13.40
2022-10-09T09:01:30.618Z,13.43
2022-10-09T09:04:26.351Z,13.48
2022-10-09T09:07:09.465Z,13.53
2022-10-09T09:09:52.433Z,13.60
2022-10-09T09:12:36.816Z,13.63
2022-10-09T09:15:25.896Z,13.65
2022-10-09T09:18:17.164Z,13.63
2022-10-09T09:20:53.651Z,13.69
2022-10-09T09:23:29.919Z,13.72
2022-10-09T09:26:02.892Z,13.74
2022-10-09T09:28:39.768Z,13.80
2022-10-09T09:31:17.747Z,13.84
2022-10-09T09:33:56.639Z,13.91
2022-10-09T09:36:35.298Z,13.96
2022-10-09T09:40:07.794Z,14.00
2022-10-09T09:42:16.042Z,14.05
2022-10-09T09:44:58.091Z,14.07
2022-10-09T09:47:34.802Z,14.10
2022-10-09T09:50:18.519Z,14.11
2022-10-09T09:53:05.227Z,14.12
2022-10-09T09:55:37.953Z,14.15
2022-10-09T09:58:17.030Z,14.12
2022-10-09T10:01:01.159Z,14.14
2022-10-09T10:03:35.155Z,14.32
2022-10-09T10:06:22.814Z,14.33
2022-10-09T10:09:00.105Z,14.37
2022-10-09T10:11:35.865Z,14.37
2022-10-09T10:14:09.952Z,14.32
2022-10-09T10:16:48.521Z,14.38
2022-10-09T10:19:23.130Z,14.37
2022-10-09T10:21:57.009Z,14.43
2022-10-09T10:24:34.360Z,14.44
2022-10-09T10:27:14.321Z,14.21
2022-10-09T10:29:50.483Z,14.49
2022-10-09T10:32:29.557Z,14.44
2022-10-09T10:35:05.139Z,14.31
2022-10-09T10:37:46.786Z,14.49
2022-10-09T10:40:25.075Z,14.42
2022-10-09T10:43:18.367Z,14.63
2022-10-09T10:46:00.004Z,14.56
2022-10-09T10:48:40.267Z,14.65
2022-10-09T10:51:31.067Z,14.70
2022-10-09T10:54:18.830Z,14.79
2022-10-09T10:56:57.066Z,14.84
2022-10-09T10:59:38.225Z,14.81
2022-10-09T11:02:46.121Z,14.91
2022-10-09T11:05:30.482Z,14.76
2022-10-09T11:08:18.065Z,14.95
2022-10-09T11:10:59.709Z,14.71
2022-10-09T11:13:35.137Z,14.74
2022-10-09T11:16:24.546Z,14.88
2022-10-09T11:19:17.534Z,14.80
2022-10-09T11:22:02.313Z,14.99
2022-10-09T11:24:56.454Z,15.01
2022-10-09T11:27:38.610Z,15.01
2022-10-09T11:30:13.653Z,15.09
2022-10-09T11:32:56.163Z,15.13
2022-10-09T11:35:34.246Z,15.14
2022-10-09T11:38:24.391Z,15.22
2022-10-09T11:40:58.569Z,14.99
2022-10-09T11:43:53.326Z,15.31
2022-10-09T11:46:38.127Z,15.36
2022-10-09T11:49:22.754Z,15.37
2022-10-09T11:52:02.468Z,15.39
2022-10-09T11:54:37.127Z,15.41
2022-10-09T11:57:14.960Z,15.43
2022-10-09T11:59:48.251Z,15.48
2022-10-09T12:02:30.068Z,15.24
2022-10-09T12:05:02.777Z,15.44
2022-10-09T12:10:36.286Z,15.31
2022-10-09T12:13:27.623Z,15.28
2022-10-09T12:16:00.285Z,15.39
2022-10-09T12:18:36.321Z,15.45
2022-10-09T12:21:22.330Z,15.43
2022-10-09T12:23:55.378Z,15.14
2022-10-09T12:26:30.639Z,15.27
2022-10-09T12:29:05.386Z,15.29
2022-10-09T12:31:41.812Z,15.25
2022-10-09T12:34:20.760Z,15.27
2022-10-09T12:37:04.601Z,15.11
2022-10-09T12:39:37.683Z,15.17
2022-10-09T12:42:18.545Z,15.26
2022-10-09T12:44:54.414Z,15.24
2022-10-09T12:47:29.768Z,15.04
2022-10-09T12:50:12.776Z,15.14
2022-10-09T12:52:49.242Z,15.20
2022-10-09T12:55:27.574Z,15.21
2022-10-09T12:58:04.586Z,15.15
2022-10-09T13:00:37.158Z,15.19
2022-10-09T13:03:23.505Z,15.18
2022-10-09T13:05:57.648Z,15.16
2022-10-09T13:08:32.793Z,15.14
2022-10-09T13:11:10.903Z,15.12
2022-10-09T13:13:49.666Z,15.06
2022-10-09T13:16:22.814Z,15.02
2022-10-09T13:18:59.078Z,14.99
2022-10-09T13:21:35.278Z,14.81
2022-10-09T13:24:09.207Z,14.78
2022-10-09T13:26:44.097Z,14.82
2022-10-09T13:29:18.229Z,14.92
2022-10-09T13:31:50.787Z,14.89
2022-10-09T13:34:24.859Z,14.88
2022-10-09T13:36:59.270Z,14.65
2022-10-09T13:39:33.166Z,14.86
2022-10-09T13:42:06.179Z,14.87
2022-10-09T13:44:40.324Z,14.84
2022-10-09T13:47:12.769Z,14.83
2022-10-09T13:49:45.618Z,14.81
2022-10-09T13:52:18.431Z,14.65
2022-10-09T13:54:51.147Z,14.55
2022-10-09T13:57:23.704Z,14.76
2022-10-09T13:59:57.723Z,14.69
2022-10-09T14:02:30.163Z,14.68
2022-10-09T14:05:03.072Z,14.56
2022-10-09T14:07:36.565Z,14.36
2022-10-09T14:10:10.991Z,14.32
2022-10-09T14:12:43.578Z,14.27
2022-10-09T14:15:17.977Z,14.41
2022-10-09T14:17:51.102Z,14.36
2022-10-09T14:20:25.349Z,14.28
2022-10-09T14:22:57.905Z,14.29
2022-10-09T14:25:34.274Z,14.17
2022-10-09T14:28:07.757Z,14.15
2022-10-09T14:30:42.953Z,14.11
2022-10-09T14:33:15.590Z,14.11
2022-10-09T14:35:49.767Z,14.12
2022-10-09T14:38:22.305Z,14.15
2022-10-09T14:40:56.862Z,13.91
2022-10-09T14:43:30.469Z,14.04
2022-10-09T14:46:06.839Z,13.99
2022-10-09T14:48:40.312Z,14.03
2022-10-09T14:51:15.386Z,14.03
2022-10-09T14:53:48.516Z,14.00
2022-10-09T14:56:21.751Z,13.75
2022-10-09T14:58:54.917Z,13.96
2022-10-09T15:01:29.955Z,13.79
2022-10-09T15:04:03.241Z,13.75
2022-10-09T15:06:36.635Z,13.85
2022-10-09T15:09:11.286Z,13.80
2022-10-09T15:11:44.208Z,13.87
2022-10-09T15:14:18.418Z,13.82
2022-10-09T15:16:52.643Z,13.87
2022-10-09T15:19:26.799Z,13.90
2022-10-09T15:21:59.674Z,13.74
2022-10-09T15:24:32.288Z,13.88
2022-10-09T15:27:06.520Z,13.72
2022-10-09T15:29:39.169Z,13.86
2022-10-09T15:32:13.712Z,13.81
2022-10-09T15:34:51.439Z,13.79
2022-10-09T15:37:24.336Z,13.66
2022-10-09T15:39:57.015Z,13.83
2022-10-09T15:42:30.111Z,13.55
2022-10-09T15:45:04.359Z,13.76
2022-10-09T15:47:50.995Z,13.63
2022-10-09T15:50:25.711Z,13.68
2022-10-09T15:53:00.127Z,13.44
2022-10-09T15:55:37.031Z,13.53
2022-10-09T15:58:10.144Z,13.55
2022-10-09T16:00:48.311Z,13.53
2022-10-09T16:03:23.091Z,13.50
2022-10-09T16:05:59.012Z,13.16
2022-10-09T16:08:33.621Z,13.39
2022-10-09T16:13:48.158Z,13.17
2022-10-09T16:16:23.307Z,13.36
2022-10-09T16:18:58.213Z,13.40
2022-10-09T16:21:34.112Z,13.38
2022-10-09T16:24:07.525Z,13.28
2022-10-09T16:26:40.484Z,13.11
2022-10-09T16:29:16.015Z,13.24
2022-10-09T16:31:49.314Z,13.18
2022-10-09T16:34:23.979Z,13.29
2022-10-09T16:36:59.649Z,13.28
2022-10-09T16:39:32.984Z,13.29
2022-10-09T16:42:05.933Z,13.25
2022-10-09T16:44:39.375Z,13.28
2022-10-09T16:47:14.332Z,13.20
2022-10-09T16:49:49.199Z,13.21
2022-10-09T16:52:22.683Z,12.87
2022-10-09T16:54:59.542Z,13.14
2022-10-09T16:57:32.911Z,13.17
2022-10-09T17:00:07.080Z,13.10
2022-10-09T17:02:39.705Z,13.11
2022-10-09T17:05:13.991Z,13.06
2022-10-09T17:07:47.190Z,13.10
2022-10-09T17:10:20.229Z,13.08
2022-10-09T17:12:53.103Z,13.05
2022-10-09T17:15:26.035Z,13.06
2022-10-09T17:17:58.640Z,13.04
2022-10-09T17:20:34.957Z,13.02
2022-10-09T17:23:07.822Z,12.99
2022-10-09T17:25:42.241Z,12.97
2022-10-09T17:28:15.150Z,12.92
2022-10-09T17:30:48.164Z,12.88
2022-10-09T17:33:20.862Z,12.89
2022-10-09T17:35:55.139Z,12.88
2022-10-09T17:38:28.374Z,12.87
2022-10-09T17:41:04.398Z,12.76
2022-10-09T17:43:37.540Z,12.74
2022-10-09T17:46:10.751Z,12.72
2022-10-09T17:48:53.491Z,12.69
2022-10-09T17:51:30.009Z,12.76
2022-10-09T17:54:08.223Z,12.64
2022-10-09T17:56:45.118Z,12.57
2022-10-09T17:59:19.070Z,12.69
2022-10-09T18:01:52.256Z,12.62
2022-10-09T18:04:28.305Z,12.43
2022-10-09T18:07:13.886Z,12.15
2022-10-09T18:09:47.212Z,12.38
2022-10-09T18:12:25.366Z,12.57
2022-10-09T18:15:00.960Z,12.17
2022-10-09T18:17:36.818Z,12.23
2022-10-09T18:20:10.702Z,12.52
2022-10-09T18:22:45.589Z,12.53
2022-10-09T18:25:18.910Z,12.54
2022-10-09T18:27:54.121Z,12.42
2022-10-09T18:30:27.905Z,12.51
2022-10-09T18:33:00.865Z,12.54
2022-10-09T18:35:35.516Z,12.53
2022-10-09T18:38:11.318Z,12.52
2022-10-09T18:40:45.802Z,12.50
2022-10-09T18:43:19.137Z,12.46
2022-10-09T18:45:52.155Z,12.46
2022-10-09T18:48:25.484Z,12.46
2022-10-09T18:50:59.583Z,12.41
2022-10-09T18:53:37.192Z,12.45
2022-10-09T18:56:11.360Z,12.36
2022-10-09T18:58:44.572Z,12.43
2022-10-09T19:01:17.779Z,12.43
2022-10-09T19:03:50.586Z,12.43
2022-10-09T19:06:23.402Z,12.32
2022-10-09T19:09:00.945Z,12.34
2022-10-09T19:11:34.903Z,12.44
2022-10-09T19:14:10.292Z,12.29
2022-10-09T19:16:43.225Z,12.05
2022-10-09T19:19:15.930Z,12.38
2022-10-09T19:21:48.496Z,12.41
2022-10-09T19:24:22.757Z,12.44
2022-10-09T19:26:56.352Z,12.41
2022-10-09T19:29:29.474Z,12.37
2022-10-09T19:32:02.079Z,12.42
2022-10-09T19:34:34.809Z,12.34
2022-10-09T19:37:09.707Z,12.38
2022-10-09T19:39:48.576Z,12.33
2022-10-09T19:42:22.524Z,12.37
2022-10-09T19:44:55.874Z,12.34
2022-10-09T19:47:28.445Z,12.37
2022-10-09T19:50:04.478Z,12.34
2022-10-09T19:52:37.127Z,12.36
2022-10-09T19:55:11.265Z,12.35
2022-10-09T19:57:43.776Z,12.38
2022-10-09T20:00:16.972Z,12.38
2022-10-09T20:02:50.013Z,12.36
2022-10-09T20:05:23.372Z,12.31
2022-10-09T20:07:55.791Z,12.32
2022-10-09T20:10:29.814Z,12.33
2022-10-09T20:13:05.274Z,12.35
2022-10-09T20:15:42.306Z,12.33
2022-10-09T20:18:14.764Z,12.35
2022-10-09T20:20:48.744Z,12.37
2022-10-09T20:23:21.460Z,12.37
2022-10-09T20:26:01.416Z,12.37
2022-10-09T20:28:35.457Z,12.34
2022-10-09T20:31:12.061Z,12.30
2022-10-09T20:33:46.505Z,12.25
2022-10-09T20:36:21.385Z,12.37
2022-10-09T20:38:57.865Z,12.37
2022-10-09T20:41:32.662Z,12.33
2022-10-09T20:44:05.642Z,12.36
2022-10-09T20:46:39.707Z,12.36
2022-10-09T20:49:13.988Z,12.26
2022-10-09T20:51:46.520Z,12.35
2022-10-09T20:54:20.939Z,12.26
2022-10-09T20:56:54.872Z,12.34
2022-10-09T20:59:27.338Z,12.22
2022-10-09T21:02:02.890Z,12.35
2022-10-09T21:04:35.355Z,12.29
2022-10-09T21:07:07.932Z,12.36
2022-10-09T21:09:40.438Z,12.33
2022-10-09T21:12:14.361Z,12.31
2022-10-09T21:14:46.736Z,12.29
2022-10-09T21:17:19.341Z,12.20
2022-10-09T21:19:52.134Z,12.24
2022-10-09T21:22:25.368Z,12.25
2022-10-09T21:24:57.734Z,12.23
2022-10-09T21:27:31.652Z,12.20
2022-10-09T21:30:04.772Z,12.25
2022-10-09T21:32:37.334Z,12.25
2022-10-09T21:35:09.763Z,12.27
2022-10-09T21:37:42.472Z,12.27
2022-10-09T21:40:14.974Z,12.24
2022-10-09T21:42:49.263Z,12.27
2022-10-09T21:45:21.944Z,12.16
2022-10-09T21:47:54.525Z,12.03
2022-10-09T21:50:27.183Z,12.18
2022-10-09T21:52:59.754Z,12.24
2022-10-09T21:55:32.175Z,12.00
2022-10-09T21:58:07.383Z,12.16
2022-10-09T22:00:39.829Z,12.24
2022-10-09T22:03:12.436Z,12.22
2022-10-09T22:05:44.807Z,12.16
2022-10-09T22:08:17.402Z,12.14
2022-10-09T22:10:50.209Z,12.14
2022-10-09T22:13:24.165Z,12.19
2022-10-09T22:15:56.609Z,12.16
2022-10-09T22:18:29.240Z,12.13
2022-10-09T22:21:05.219Z,11.93
2022-10-09T22:23:38.093Z,12.04
2022-10-09T22:26:13.373Z,12.04
2022-10-09T22:28:48.305Z,12.08
2022-10-09T22:31:22.247Z,12.07
2022-10-09T22:33:56.758Z,12.08
2022-10-09T22:36:31.560Z,12.08
2022-10-09T22:39:06.583Z,11.98
2022-10-09T22:41:39.494Z,11.98
2022-10-09T22:44:13.473Z,12.06
2022-10-09T22:46:46.874Z,12.05
2022-10-09T22:49:19.487Z,12.00
2022-10-09T22:51:51.926Z,12.04
2022-10-09T22:54:24.454Z,11.90
2022-10-09T22:56:56.947Z,12.04
2022-10-09T22:59:30.893Z,12.03
2022-10-09T23:07:43.103Z,11.88
2022-10-09T23:10:15.718Z,11.96
2022-10-09T23:12:48.924Z,11.75
2022-10-09T23:15:22.897Z,11.65
2022-10-09T23:17:55.476Z,11.96
2022-10-09T23:20:27.950Z,11.92
2022-10-09T23:23:00.413Z,11.98
2022-10-09T23:25:32.822Z,11.78
2022-10-09T23:28:05.367Z,11.93
2022-10-09T23:30:39.454Z,11.98
2022-10-09T23:33:11.891Z,11.93
2022-10-09T23:35:44.497Z,11.75
2022-10-09T23:38:17.183Z,11.92
2022-10-09T23:40:55.389Z,11.93
2022-10-09T23:43:28.704Z,11.89
2022-10-09T23:46:04.882Z,11.84
2022-10-09T23:48:37.687Z,11.88
2022-10-09T23:51:10.506Z,11.88
2022-10-09T23:53:43.489Z,11.89
2022-10-09T23:56:18.390Z,11.89
2022-10-09T23:58:51.616Z,11.87
